sensor_id;sensor_type;location;lat;lon;timestamp;P1;durP1;ratioP1;P2;durP2;ratioP2
23490;SDS011;14683;50.038;8.078;2023-03-25T07:03:11;4.68;;;1.90;;
23490;SDS011;14683;50.038;8.078;2023-03-25T07:05:39;7.43;;;3.25;;
23490;SDS011;14683;50.038;8.078;2023-03-25T07:08:06;6.50;;;2.25;;
23490;SDS011;14683;50.038;8.078;2023-03-25T07:10:33;2.67;;;1.20;;
23490;SDS011;14683;50.038;8.078;2023-03-25T07:12:59;6.85;;;1.35;;
23490;SDS011;14683;50.038;8.078;2023-03-25T07:15:25;1.77;;;1.23;;
23490;SDS011;14683;50.038;8.078;2023-03-25T07:17:51;4.05;;;1.08;;
23490;SDS011;14683;50.038;8.078;2023-03-25T07:20:17;3.05;;;1.02;;
23490;SDS011;14683;50.038;8.078;2023-03-25T07:25:09;6.07;;;1.30;;
23490;SDS011;14683;50.038;8.078;2023-03-25T07:30:06;6.10;;;2.47;;
23490;SDS011;14683;50.038;8.078;2023-03-25T07:32:33;9.88;;;3.20;;
23490;SDS011;14683;50.038;8.078;2023-03-25T07:34:59;7.22;;;2.30;;
23490;SDS011;14683;50.038;8.078;2023-03-25T07:39:51;7.03;;;2.50;;
23490;SDS011;14683;50.038;8.078;2023-03-25T07:42:17;10.73;;;2.72;;
23490;SDS011;14683;50.038;8.078;2023-03-25T07:45:09;8.63;;;3.78;;
23490;SDS011;14683;50.038;8.078;2023-03-25T07:47:38;11.10;;;3.95;;
23490;SDS011;14683;50.038;8.078;2023-03-25T07:50:04;12.15;;;2.72;;
23490;SDS011;14683;50.038;8.078;2023-03-25T07:52:30;16.75;;;3.58;;
23490;SDS011;14683;50.038;8.078;2023-03-25T07:54:56;11.02;;;4.68;;
23490;SDS011;14683;50.038;8.078;2023-03-25T07:57:23;12.95;;;2.58;;
23490;SDS011;14683;50.038;8.078;2023-03-25T08:02:15;10.18;;;1.98;;
23490;SDS011;14683;50.038;8.078;2023-03-25T08:04:41;10.43;;;2.50;;
23490;SDS011;14683;50.038;8.078;2023-03-25T08:07:07;8.15;;;2.08;;
23490;SDS011;14683;50.038;8.078;2023-03-25T08:09:33;15.63;;;2.90;;
23490;SDS011;14683;50.038;8.078;2023-03-25T08:11:59;10.75;;;1.83;;
23490;SDS011;14683;50.038;8.078;2023-03-25T08:16:52;12.43;;;1.88;;
23490;SDS011;14683;50.038;8.078;2023-03-25T08:19:18;9.63;;;2.22;;
23490;SDS011;14683;50.038;8.078;2023-03-25T08:21:44;10.48;;;2.30;;
23490;SDS011;14683;50.038;8.078;2023-03-25T08:24:10;12.05;;;2.10;;
23490;SDS011;14683;50.038;8.078;2023-03-25T08:26:36;10.52;;;2.03;;
23490;SDS011;14683;50.038;8.078;2023-03-25T08:29:03;9.55;;;2.50;;
23490;SDS011;14683;50.038;8.078;2023-03-25T08:31:30;7.45;;;2.00;;
23490;SDS011;14683;50.038;8.078;2023-03-25T08:33:57;9.02;;;2.00;;
23490;SDS011;14683;50.038;8.078;2023-03-25T08:36:24;10.90;;;2.58;;
23490;SDS011;14683;50.038;8.078;2023-03-25T08:41:16;9.63;;;1.90;;
23490;SDS011;14683;50.038;8.078;2023-03-25T08:43:42;11.45;;;2.05;;
23490;SDS011;14683;50.038;8.078;2023-03-25T08:46:09;8.23;;;1.65;;
23490;SDS011;14683;50.038;8.078;2023-03-25T08:48:35;13.13;;;2.65;;
23490;SDS011;14683;50.038;8.078;2023-03-25T08:51:01;6.68;;;1.75;;
23490;SDS011;14683;50.038;8.078;2023-03-25T08:53:28;12.02;;;2.25;;
23490;SDS011;14683;50.038;8.078;2023-03-25T08:55:55;10.52;;;1.65;;
23490;SDS011;14683;50.038;8.078;2023-03-25T08:58:22;8.13;;;1.88;;
23490;SDS011;14683;50.038;8.078;2023-03-25T09:00:49;6.82;;;1.73;;
23490;SDS011;14683;50.038;8.078;2023-03-25T09:10:37;9.00;;;1.80;;
23490;SDS011;14683;50.038;8.078;2023-03-25T09:13:03;10.25;;;1.70;;
23490;SDS011;14683;50.038;8.078;2023-03-25T09:15:29;8.60;;;2.05;;
23490;SDS011;14683;50.038;8.078;2023-03-25T09:17:55;11.70;;;1.75;;
23490;SDS011;14683;50.038;8.078;2023-03-25T09:20:22;7.95;;;1.60;;
23490;SDS011;14683;50.038;8.078;2023-03-25T09:25:14;3.60;;;0.85;;
23490;SDS011;14683;50.038;8.078;2023-03-25T09:27:40;2.05;;;0.70;;
23490;SDS011;14683;50.038;8.078;2023-03-25T09:30:06;0.68;;;0.40;;
23490;SDS011;14683;50.038;8.078;2023-03-25T09:32:33;0.38;;;0.20;;
23490;SDS011;14683;50.038;8.078;2023-03-25T09:37:25;2.72;;;0.50;;
23490;SDS011;14683;50.038;8.078;2023-03-25T09:44:54;1.40;;;0.40;;
23490;SDS011;14683;50.038;8.078;2023-03-25T09:47:24;1.85;;;0.40;;
23490;SDS011;14683;50.038;8.078;2023-03-25T09:49:55;2.83;;;0.40;;
23490;SDS011;14683;50.038;8.078;2023-03-25T09:52:24;1.45;;;0.60;;
23490;SDS011;14683;50.038;8.078;2023-03-25T09:54:54;0.93;;;0.50;;
23490;SDS011;14683;50.038;8.078;2023-03-25T09:57:29;1.33;;;0.40;;
23490;SDS011;14683;50.038;8.078;2023-03-25T09:59:56;4.95;;;0.80;;
23490;SDS011;14683;50.038;8.078;2023-03-25T10:02:33;1.30;;;0.60;;
23490;SDS011;14683;50.038;8.078;2023-03-25T10:10:31;3.03;;;0.75;;
23490;SDS011;14683;50.038;8.078;2023-03-25T10:13:12;2.45;;;0.80;;
23490;SDS011;14683;50.038;8.078;2023-03-25T10:18:36;2.95;;;0.73;;
23490;SDS011;14683;50.038;8.078;2023-03-25T10:21:23;0.98;;;0.73;;
23490;SDS011;14683;50.038;8.078;2023-03-25T10:32:52;4.25;;;1.10;;
23490;SDS011;14683;50.038;8.078;2023-03-25T10:35:26;2.53;;;1.10;;
23490;SDS011;14683;50.038;8.078;2023-03-25T10:45:26;4.47;;;1.23;;
23490;SDS011;14683;50.038;8.078;2023-03-25T11:37:55;2.30;;;0.82;;
23490;SDS011;14683;50.038;8.078;2023-03-25T11:40:24;3.85;;;1.10;;
23490;SDS011;14683;50.038;8.078;2023-03-25T11:42:51;3.03;;;1.20;;
23490;SDS011;14683;50.038;8.078;2023-03-25T11:45:23;2.55;;;0.82;;
23490;SDS011;14683;50.038;8.078;2023-03-25T11:47:57;3.03;;;1.02;;
23490;SDS011;14683;50.038;8.078;2023-03-25T11:50:27;1.25;;;0.90;;
23490;SDS011;14683;50.038;8.078;2023-03-25T11:52:58;2.13;;;0.88;;
23490;SDS011;14683;50.038;8.078;2023-03-25T11:57:56;2.95;;;1.00;;
23490;SDS011;14683;50.038;8.078;2023-03-25T12:00:29;3.45;;;1.13;;
23490;SDS011;14683;50.038;8.078;2023-03-25T12:05:38;1.48;;;0.85;;
23490;SDS011;14683;50.038;8.078;2023-03-25T12:39:33;5.10;;;1.20;;
23490;SDS011;14683;50.038;8.078;2023-03-25T12:42:41;5.15;;;0.75;;
23490;SDS011;14683;50.038;8.078;2023-03-25T12:45:21;2.60;;;0.90;;
23490;SDS011;14683;50.038;8.078;2023-03-25T12:47:57;2.47;;;1.10;;
23490;SDS011;14683;50.038;8.078;2023-03-25T12:50:44;2.95;;;1.05;;
23490;SDS011;14683;50.038;8.078;2023-03-25T13:04:29;3.35;;;1.17;;
23490;SDS011;14683;50.038;8.078;2023-03-25T13:07:03;4.95;;;1.20;;
23490;SDS011;14683;50.038;8.078;2023-03-25T13:09:38;3.25;;;1.30;;
23490;SDS011;14683;50.038;8.078;2023-03-25T13:12:25;5.90;;;1.60;;
23490;SDS011;14683;50.038;8.078;2023-03-25T13:14:55;6.75;;;1.20;;
23490;SDS011;14683;50.038;8.078;2023-03-25T13:17:27;1.60;;;0.70;;
23490;SDS011;14683;50.038;8.078;2023-03-25T13:19:58;3.75;;;1.13;;
23490;SDS011;14683;50.038;8.078;2023-03-25T13:22:28;8.02;;;1.35;;
23490;SDS011;14683;50.038;8.078;2023-03-25T13:24:58;3.03;;;0.90;;
23490;SDS011;14683;50.038;8.078;2023-03-25T13:27:30;3.25;;;1.15;;
23490;SDS011;14683;50.038;8.078;2023-03-25T13:29:58;4.80;;;0.95;;
23490;SDS011;14683;50.038;8.078;2023-03-25T13:32:36;1.40;;;0.70;;
23490;SDS011;14683;50.038;8.078;2023-03-25T13:35:33;4.05;;;0.93;;
23490;SDS011;14683;50.038;8.078;2023-03-25T13:38:04;1.42;;;0.70;;
23490;SDS011;14683;50.038;8.078;2023-03-25T13:49:14;0.93;;;0.60;;
23490;SDS011;14683;50.038;8.078;2023-03-25T13:51:40;3.00;;;1.15;;
23490;SDS011;14683;50.038;8.078;2023-03-25T13:59:30;4.75;;;1.15;;
23490;SDS011;14683;50.038;8.078;2023-03-25T14:14:01;2.88;;;0.82;;
23490;SDS011;14683;50.038;8.078;2023-03-25T14:16:28;2.88;;;1.20;;
23490;SDS011;14683;50.038;8.078;2023-03-25T14:18:58;3.88;;;1.30;;
23490;SDS011;14683;50.038;8.078;2023-03-25T14:24:09;2.92;;;0.95;;
23490;SDS011;14683;50.038;8.078;2023-03-25T14:26:44;3.33;;;0.88;;
23490;SDS011;14683;50.038;8.078;2023-03-25T14:29:18;2.72;;;0.80;;
23490;SDS011;14683;50.038;8.078;2023-03-25T14:34:41;5.63;;;1.10;;
23490;SDS011;14683;50.038;8.078;2023-03-25T14:37:15;5.55;;;1.08;;
23490;SDS011;14683;50.038;8.078;2023-03-25T14:39:53;4.47;;;1.33;;
23490;SDS011;14683;50.038;8.078;2023-03-25T14:42:29;5.18;;;1.00;;
23490;SDS011;14683;50.038;8.078;2023-03-25T14:47:57;1.23;;;0.60;;
23490;SDS011;14683;50.038;8.078;2023-03-25T14:52:50;7.03;;;1.38;;
23490;SDS011;14683;50.038;8.078;2023-03-25T14:55:40;4.25;;;0.80;;
23490;SDS011;14683;50.038;8.078;2023-03-25T15:00:51;4.03;;;0.85;;
23490;SDS011;14683;50.038;8.078;2023-03-25T15:03:19;4.13;;;1.33;;
23490;SDS011;14683;50.038;8.078;2023-03-25T15:05:53;2.38;;;1.00;;
23490;SDS011;14683;50.038;8.078;2023-03-25T15:08:49;4.00;;;1.27;;
23490;SDS011;14683;50.038;8.078;2023-03-25T15:11:23;2.60;;;1.20;;
23490;SDS011;14683;50.038;8.078;2023-03-25T15:13:54;6.63;;;1.33;;
23490;SDS011;14683;50.038;8.078;2023-03-25T15:21:19;4.70;;;1.40;;
23490;SDS011;14683;50.038;8.078;2023-03-25T15:23:50;3.33;;;1.23;;
23490;SDS011;14683;50.038;8.078;2023-03-25T15:26:26;5.20;;;0.80;;
23490;SDS011;14683;50.038;8.078;2023-03-25T15:37:20;3.22;;;1.35;;
23490;SDS011;14683;50.038;8.078;2023-03-25T15:56:00;5.15;;;1.55;;
23490;SDS011;14683;50.038;8.078;2023-03-25T15:59:01;4.68;;;1.20;;
23490;SDS011;14683;50.038;8.078;2023-03-25T16:03:52;3.15;;;0.75;;
23490;SDS011;14683;50.038;8.078;2023-03-25T16:06:22;6.10;;;1.00;;
23490;SDS011;14683;50.038;8.078;2023-03-25T16:08:50;4.65;;;1.30;;
23490;SDS011;14683;50.038;8.078;2023-03-25T16:13:46;3.38;;;1.17;;
23490;SDS011;14683;50.038;8.078;2023-03-25T16:16:13;4.55;;;1.33;;
23490;SDS011;14683;50.038;8.078;2023-03-25T16:18:42;2.90;;;0.90;;
23490;SDS011;14683;50.038;8.078;2023-03-25T16:21:10;2.33;;;0.95;;
23490;SDS011;14683;50.038;8.078;2023-03-25T16:23:37;6.00;;;1.15;;
23490;SDS011;14683;50.038;8.078;2023-03-25T16:26:03;7.10;;;1.20;;
23490;SDS011;14683;50.038;8.078;2023-03-25T16:28:34;4.60;;;0.85;;
23490;SDS011;14683;50.038;8.078;2023-03-25T16:31:04;3.45;;;0.93;;
23490;SDS011;14683;50.038;8.078;2023-03-25T16:35:58;4.47;;;1.55;;
23490;SDS011;14683;50.038;8.078;2023-03-25T16:38:26;4.97;;;0.88;;
23490;SDS011;14683;50.038;8.078;2023-03-25T16:41:00;3.88;;;1.13;;
23490;SDS011;14683;50.038;8.078;2023-03-25T16:43:27;2.75;;;0.80;;
23490;SDS011;14683;50.038;8.078;2023-03-25T16:45:55;5.70;;;0.95;;
23490;SDS011;14683;50.038;8.078;2023-03-25T16:50:52;4.30;;;0.90;;
23490;SDS011;14683;50.038;8.078;2023-03-25T16:53:19;3.10;;;0.90;;
23490;SDS011;14683;50.038;8.078;2023-03-25T16:58:20;4.05;;;1.10;;
23490;SDS011;14683;50.038;8.078;2023-03-25T17:00:48;2.05;;;0.80;;
23490;SDS011;14683;50.038;8.078;2023-03-25T17:03:17;3.78;;;0.90;;
23490;SDS011;14683;50.038;8.078;2023-03-25T17:06:07;3.00;;;0.95;;
23490;SDS011;14683;50.038;8.078;2023-03-25T17:08:37;2.58;;;1.00;;
23490;SDS011;14683;50.038;8.078;2023-03-25T17:13:31;2.47;;;0.88;;
23490;SDS011;14683;50.038;8.078;2023-03-25T17:16:04;4.45;;;1.20;;
23490;SDS011;14683;50.038;8.078;2023-03-25T17:18:32;5.38;;;1.05;;
23490;SDS011;14683;50.038;8.078;2023-03-25T17:21:00;5.60;;;2.17;;
23490;SDS011;14683;50.038;8.078;2023-03-25T17:26:23;16.57;;;8.57;;
23490;SDS011;14683;50.038;8.078;2023-03-25T17:36:38;3.05;;;0.93;;
23490;SDS011;14683;50.038;8.078;2023-03-25T17:39:12;6.03;;;1.23;;
23490;SDS011;14683;50.038;8.078;2023-03-25T17:41:42;3.80;;;1.10;;
23490;SDS011;14683;50.038;8.078;2023-03-25T17:46:41;2.35;;;0.85;;
23490;SDS011;14683;50.038;8.078;2023-03-25T17:49:18;4.50;;;0.88;;
23490;SDS011;14683;50.038;8.078;2023-03-25T17:51:44;2.20;;;0.90;;
23490;SDS011;14683;50.038;8.078;2023-03-25T17:54:11;2.90;;;0.77;;
23490;SDS011;14683;50.038;8.078;2023-03-25T17:56:37;3.00;;;0.77;;
23490;SDS011;14683;50.038;8.078;2023-03-25T17:59:05;1.52;;;0.52;;
23490;SDS011;14683;50.038;8.078;2023-03-25T18:01:33;0.65;;;0.50;;
23490;SDS011;14683;50.038;8.078;2023-03-25T18:04:00;4.18;;;1.17;;
23490;SDS011;14683;50.038;8.078;2023-03-25T18:08:52;0.95;;;0.45;;
23490;SDS011;14683;50.038;8.078;2023-03-25T18:11:18;4.25;;;0.80;;
23490;SDS011;14683;50.038;8.078;2023-03-25T18:13:44;1.42;;;0.60;;
23490;SDS011;14683;50.038;8.078;2023-03-25T18:16:13;1.95;;;1.50;;
23490;SDS011;14683;50.038;8.078;2023-03-25T18:18:40;3.35;;;1.50;;
23490;SDS011;14683;50.038;8.078;2023-03-25T18:21:08;3.50;;;2.30;;
23490;SDS011;14683;50.038;8.078;2023-03-25T18:23:36;4.35;;;2.53;;
23490;SDS011;14683;50.038;8.078;2023-03-25T18:26:03;3.83;;;1.92;;
23490;SDS011;14683;50.038;8.078;2023-03-25T18:28:30;3.35;;;1.45;;
23490;SDS011;14683;50.038;8.078;2023-03-25T18:30:57;2.63;;;1.50;;
23490;SDS011;14683;50.038;8.078;2023-03-25T18:33:26;4.90;;;1.30;;
23490;SDS011;14683;50.038;8.078;2023-03-25T18:35:53;2.05;;;1.25;;
23490;SDS011;14683;50.038;8.078;2023-03-25T18:38:21;3.28;;;0.82;;
23490;SDS011;14683;50.038;8.078;2023-03-25T18:40:52;1.83;;;0.65;;
23490;SDS011;14683;50.038;8.078;2023-03-25T18:43:20;0.68;;;0.57;;
23490;SDS011;14683;50.038;8.078;2023-03-25T18:45:46;3.15;;;1.20;;
23490;SDS011;14683;50.038;8.078;2023-03-25T18:48:13;1.73;;;0.98;;
23490;SDS011;14683;50.038;8.078;2023-03-25T18:50:43;2.20;;;1.00;;
23490;SDS011;14683;50.038;8.078;2023-03-25T18:53:17;2.25;;;1.20;;
23490;SDS011;14683;50.038;8.078;2023-03-25T18:55:47;4.22;;;3.10;;
23490;SDS011;14683;50.038;8.078;2023-03-25T18:58:20;3.92;;;3.42;;
23490;SDS011;14683;50.038;8.078;2023-03-25T19:00:48;5.75;;;4.45;;
23490;SDS011;14683;50.038;8.078;2023-03-25T19:03:16;6.07;;;5.30;;
23490;SDS011;14683;50.038;8.078;2023-03-25T19:05:42;4.15;;;3.75;;
23490;SDS011;14683;50.038;8.078;2023-03-25T19:08:16;3.47;;;3.17;;
23490;SDS011;14683;50.038;8.078;2023-03-25T19:10:43;3.53;;;1.83;;
23490;SDS011;14683;50.038;8.078;2023-03-25T19:13:10;5.28;;;4.38;;
23490;SDS011;14683;50.038;8.078;2023-03-25T19:15:37;7.95;;;3.38;;
23490;SDS011;14683;50.038;8.078;2023-03-25T19:18:03;5.07;;;3.15;;
23490;SDS011;14683;50.038;8.078;2023-03-25T19:20:30;5.13;;;2.70;;
23490;SDS011;14683;50.038;8.078;2023-03-25T19:22:58;2.40;;;1.90;;
23490;SDS011;14683;50.038;8.078;2023-03-25T19:25:25;2.28;;;1.60;;
23490;SDS011;14683;50.038;8.078;2023-03-25T19:27:52;5.43;;;3.33;;
23490;SDS011;14683;50.038;8.078;2023-03-25T19:32:45;5.67;;;3.37;;
23490;SDS011;14683;50.038;8.078;2023-03-25T19:35:13;4.60;;;2.65;;
23490;SDS011;14683;50.038;8.078;2023-03-25T19:37:40;5.43;;;2.65;;
23490;SDS011;14683;50.038;8.078;2023-03-25T19:40:13;3.88;;;2.60;;
23490;SDS011;14683;50.038;8.078;2023-03-25T19:42:43;2.80;;;2.53;;
23490;SDS011;14683;50.038;8.078;2023-03-25T19:45:10;3.38;;;1.70;;
23490;SDS011;14683;50.038;8.078;2023-03-25T19:47:38;2.60;;;1.48;;
23490;SDS011;14683;50.038;8.078;2023-03-25T19:50:08;1.67;;;1.58;;
23490;SDS011;14683;50.038;8.078;2023-03-25T19:52:35;1.98;;;0.70;;
23490;SDS011;14683;50.038;8.078;2023-03-25T19:55:02;4.05;;;1.00;;
23490;SDS011;14683;50.038;8.078;2023-03-25T19:57:29;1.63;;;0.80;;
23490;SDS011;14683;50.038;8.078;2023-03-25T19:59:55;4.60;;;0.90;;
23490;SDS011;14683;50.038;8.078;2023-03-25T20:02:22;2.70;;;1.10;;
23490;SDS011;14683;50.038;8.078;2023-03-25T20:04:50;1.73;;;0.85;;
23490;SDS011;14683;50.038;8.078;2023-03-25T20:07:16;1.92;;;0.88;;
23490;SDS011;14683;50.038;8.078;2023-03-25T20:09:42;2.97;;;0.80;;
23490;SDS011;14683;50.038;8.078;2023-03-25T20:12:08;1.70;;;0.75;;
23490;SDS011;14683;50.038;8.078;2023-03-25T20:17:01;6.82;;;3.17;;
23490;SDS011;14683;50.038;8.078;2023-03-25T20:19:27;1.50;;;1.08;;
23490;SDS011;14683;50.038;8.078;2023-03-25T20:24:19;5.80;;;0.80;;
23490;SDS011;14683;50.038;8.078;2023-03-25T20:26:45;2.08;;;0.82;;
23490;SDS011;14683;50.038;8.078;2023-03-25T20:31:37;1.55;;;0.70;;
23490;SDS011;14683;50.038;8.078;2023-03-25T20:34:03;0.82;;;0.60;;
23490;SDS011;14683;50.038;8.078;2023-03-25T20:38:55;5.07;;;0.90;;
23490;SDS011;14683;50.038;8.078;2023-03-25T20:41:21;1.50;;;1.02;;
23490;SDS011;14683;50.038;8.078;2023-03-25T20:43:48;2.90;;;1.00;;
23490;SDS011;14683;50.038;8.078;2023-03-25T20:46:14;3.63;;;1.00;;
23490;SDS011;14683;50.038;8.078;2023-03-25T20:51:07;1.58;;;1.20;;
23490;SDS011;14683;50.038;8.078;2023-03-25T20:53:37;2.45;;;1.20;;
23490;SDS011;14683;50.038;8.078;2023-03-25T20:56:04;1.63;;;1.00;;
23490;SDS011;14683;50.038;8.078;2023-03-25T21:00:58;3.20;;;0.98;;
23490;SDS011;14683;50.038;8.078;2023-03-25T21:03:25;1.67;;;1.00;;
23490;SDS011;14683;50.038;8.078;2023-03-25T21:05:58;3.25;;;0.80;;
23490;SDS011;14683;50.038;8.078;2023-03-25T21:08:25;2.95;;;0.98;;
23490;SDS011;14683;50.038;8.078;2023-03-25T21:10:58;3.33;;;0.90;;
23490;SDS011;14683;50.038;8.078;2023-03-25T21:13:25;2.90;;;2.00;;
23490;SDS011;14683;50.038;8.078;2023-03-25T21:15:53;4.50;;;3.65;;
23490;SDS011;14683;50.038;8.078;2023-03-25T21:18:20;8.30;;;4.65;;
23490;SDS011;14683;50.038;8.078;2023-03-25T21:20:50;3.00;;;1.90;;
23490;SDS011;14683;50.038;8.078;2023-03-25T21:23:17;6.20;;;2.20;;
23490;SDS011;14683;50.038;8.078;2023-03-25T21:25:44;3.65;;;1.60;;
23490;SDS011;14683;50.038;8.078;2023-03-25T21:28:10;2.60;;;1.77;;
23490;SDS011;14683;50.038;8.078;2023-03-25T21:33:02;3.88;;;1.10;;
23490;SDS011;14683;50.038;8.078;2023-03-25T21:37:54;3.95;;;1.17;;
23490;SDS011;14683;50.038;8.078;2023-03-25T21:40:20;2.08;;;1.27;;
23490;SDS011;14683;50.038;8.078;2023-03-25T21:45:14;4.00;;;1.15;;
